PWSweather.com
Personal Weather Stations
Station Observations
ROSEGARDEN
Rose Garden, Brentwood, CA 94513

Rose GardenBrentwood, CA 94513

Lat: 37.967503, Lon: -121.721004

Elevation: 85

Station Type: La Crosse 2813

High Low Average
Temperature 75.1°F23.9°C 35.6°F2.0°C 52.1°F11.2°C
Dew Point 39.7°F4.3°C 23.3°F-4.8°C 30.3°F-0.9°C
Winds 5.9 mph 9.5 kmh Calm Calm 2.0 mph S3.2 kmh S
Wind Gusts 10.7 mph17.2 kmh -- 3.0 mph4.8 kmh
Humidity 67% 23% 46%
Pressure 30.33 in1027.1 mb 30.18 in1022.0 mb -
Precipitation 0.00 in0.0 mm - -
Hour Temp Dew Point Humidity Winds Wind Gusts Pressure Precip Precip Rate Daily Precip Total
12:00 AM 47.0°F8.3°C 22.6°F-5.2°C 38% 0.6 mph SW1.0 kmh SW 1.1 mph1.8 kmh 30.18 in1022.0 mb 0.00 in0.0 mm 0.00 in/hr0.0 mm/hr 0.01 in0.3 mm
12:05 AM 46.8°F8.2°C 22.4°F-5.3°C 38% 2.1 mph SW3.4 kmh SW 2.5 mph4.0 kmh 30.18 in1022.0 mb 0.00 in0.0 mm 0.00 in/hr0.0 mm/hr 0.01 in0.3 mm
12:10 AM 46.6°F8.1°C 22.2°F-5.4°C 38% 1.5 mph SW2.4 kmh SW 2.5 mph4.0 kmh 30.18 in1022.0 mb 0.00 in0.0 mm 0.00 in/hr0.0 mm/hr 0.01 in0.3 mm
12:15 AM 46.3°F7.9°C 21.9°F-5.6°C 38% 1.3 mph W2.1 kmh W 2.2 mph3.5 kmh 30.18 in1022.0 mb 0.00 in0.0 mm 0.00 in/hr0.0 mm/hr 0.01 in0.3 mm
12:21 AM 46.1°F7.8°C 22.4°F-5.3°C 39% 1.3 mph WSW2.1 kmh WSW 2.0 mph3.2 kmh 30.18 in1022.0 mb 0.00 in0.0 mm 0.00 in/hr0.0 mm/hr 0.01 in0.3 mm
12:26 AM 45.9°F7.7°C 22.2°F-5.4°C 39% 1.8 mph WNW2.9 kmh WNW 2.5 mph4.0 kmh 30.18 in1022.0 mb 0.00 in0.0 mm 0.00 in/hr0.0 mm/hr 0.01 in0.3 mm
12:31 AM 45.9°F7.7°C 23.0°F-5.0°C 40% 1.3 mph SW2.1 kmh SW 2.5 mph4.0 kmh 30.18 in1022.0 mb 0.00 in0.0 mm 0.00 in/hr0.0 mm/hr 0.01 in0.3 mm
12:36 AM 45.9°F7.7°C 22.2°F-5.4°C 39% 1.2 mph WNW1.9 kmh WNW 1.8 mph2.9 kmh 30.18 in1022.0 mb 0.00 in0.0 mm 0.00 in/hr0.0 mm/hr 0.01 in0.3 mm
12:41 AM 45.9°F7.7°C 23.5°F-4.7°C 41% 0.9 mph SW1.4 kmh SW 1.8 mph2.9 kmh 30.18 in1022.0 mb 0.00 in0.0 mm 0.00 in/hr0.0 mm/hr 0.01 in0.3 mm
12:46 AM 46.1°F7.8°C 23.0°F-5.0°C 40% 0.5 mph NW0.8 kmh NW 1.8 mph2.9 kmh 30.18 in1022.0 mb 0.00 in0.0 mm 0.00 in/hr0.0 mm/hr 0.01 in0.3 mm
12:51 AM 46.1°F7.8°C 24.1°F-4.4°C 42% 2.5 mph N4.0 kmh N 3.8 mph6.1 kmh 30.19 in1022.4 mb 0.00 in0.0 mm 0.00 in/hr0.0 mm/hr 0.01 in0.3 mm
12:56 AM 46.1°F7.8°C 24.1°F-4.4°C 42% 1.9 mph W3.1 kmh W 3.8 mph6.1 kmh 30.18 in1022.0 mb 0.00 in0.0 mm 0.00 in/hr0.0 mm/hr 0.01 in0.3 mm
01:01 AM 46.3°F7.9°C 24.3°F-4.3°C 42% 1.7 mph N2.7 kmh N 3.8 mph6.1 kmh 30.18 in1022.0 mb 0.00 in0.0 mm 0.00 in/hr0.0 mm/hr 0.00 in0.0 mm
01:06 AM 46.1°F7.8°C 24.1°F-4.4°C 42% 0.5 mph WNW0.8 kmh WNW 3.8 mph6.1 kmh 30.18 in1022.0 mb 0.00 in0.0 mm 0.00 in/hr0.0 mm/hr 0.00 in0.0 mm
01:11 AM 46.1°F7.8°C 24.7°F-4.1°C 43% 1.6 mph WNW2.6 kmh WNW 2.5 mph4.0 kmh 30.18 in1022.0 mb 0.00 in0.0 mm 0.00 in/hr0.0 mm/hr 0.00 in0.0 mm
01:16 AM 46.1°F7.8°C 24.7°F-4.1°C 43% 0.7 mph NW1.1 kmh NW 2.5 mph4.0 kmh 30.19 in1022.4 mb 0.00 in0.0 mm 0.00 in/hr0.0 mm/hr 0.00 in0.0 mm
01:21 AM 46.1°F7.8°C 25.2°F-3.8°C 44% 0.8 mph W1.3 kmh W 1.8 mph2.9 kmh 30.19 in1022.4 mb 0.00 in0.0 mm 0.00 in/hr0.0 mm/hr 0.00 in0.0 mm
01:26 AM 46.1°F7.8°C 25.2°F-3.8°C 44% 0.4 mph WNW0.6 kmh WNW 1.8 mph2.9 kmh 30.19 in1022.4 mb 0.00 in0.0 mm 0.00 in/hr0.0 mm/hr 0.00 in0.0 mm
01:31 AM 46.1°F7.8°C 25.2°F-3.8°C 44% 1.1 mph WSW1.8 kmh WSW 1.6 mph2.6 kmh 30.19 in1022.4 mb 0.00 in0.0 mm 0.00 in/hr0.0 mm/hr 0.00 in0.0 mm
01:36 AM 45.9°F7.7°C 25.7°F-3.5°C 45% 1.1 mph W1.8 kmh W 1.8 mph2.9 kmh 30.19 in1022.4 mb 0.00 in0.0 mm 0.00 in/hr0.0 mm/hr 0.00 in0.0 mm
01:41 AM 46.1°F7.8°C 26.3°F-3.2°C 46% 1.2 mph NW1.9 kmh NW 2.5 mph4.0 kmh 30.19 in1022.4 mb 0.00 in0.0 mm 0.00 in/hr0.0 mm/hr 0.00 in0.0 mm
01:46 AM 46.4°F8.0°C 27.2°F-2.7°C 47% 1.6 mph WNW2.6 kmh WNW 2.5 mph4.0 kmh 30.20 in1022.7 mb 0.00 in0.0 mm 0.00 in/hr0.0 mm/hr 0.00 in0.0 mm
01:51 AM 46.8°F8.2°C 27.6°F-2.4°C 47% 1.3 mph WNW2.1 kmh WNW 2.0 mph3.2 kmh 30.19 in1022.4 mb 0.00 in0.0 mm 0.00 in/hr0.0 mm/hr 0.00 in0.0 mm
01:58 AM 47.2°F8.4°C 28.4°F-2.0°C 48% 1.6 mph WNW2.6 kmh WNW 2.5 mph4.0 kmh 30.20 in1022.7 mb 0.00 in0.0 mm 0.00 in/hr0.0 mm/hr 0.00 in0.0 mm
02:04 AM 47.7°F8.7°C 28.4°F-2.0°C 47% 1.3 mph WNW2.1 kmh WNW 2.5 mph4.0 kmh 30.20 in1022.7 mb 0.00 in0.0 mm 0.00 in/hr0.0 mm/hr 0.00 in0.0 mm
02:09 AM 47.9°F8.8°C 27.4°F-2.6°C 45% 1.3 mph WSW2.1 kmh WSW 2.0 mph3.2 kmh 30.20 in1022.7 mb 0.00 in0.0 mm 0.00 in/hr0.0 mm/hr 0.00 in0.0 mm
02:14 AM 47.5°F8.6°C 27.1°F-2.7°C 45% 1.5 mph WSW2.4 kmh WSW 1.8 mph2.9 kmh 30.21 in1023.0 mb 0.00 in0.0 mm 0.00 in/hr0.0 mm/hr 0.00 in0.0 mm
02:19 AM 47.0°F8.3°C 26.0°F-3.3°C 44% 0.9 mph WSW1.4 kmh WSW 1.8 mph2.9 kmh 30.21 in1023.0 mb 0.00 in0.0 mm 0.00 in/hr0.0 mm/hr 0.00 in0.0 mm
02:24 AM 46.4°F8.0°C 26.1°F-3.3°C 45% 1.2 mph W1.9 kmh W 1.6 mph2.6 kmh 30.21 in1023.0 mb 0.00 in0.0 mm 0.00 in/hr0.0 mm/hr 0.00 in0.0 mm
02:29 AM 46.1°F7.8°C 25.7°F-3.5°C 45% 1.0 mph WSW1.6 kmh WSW 1.6 mph2.6 kmh 30.21 in1023.0 mb 0.00 in0.0 mm 0.00 in/hr0.0 mm/hr 0.00 in0.0 mm
02:34 AM 45.7°F7.6°C 25.5°F-3.6°C 45% 0.4 mph WSW0.6 kmh WSW 1.6 mph2.6 kmh 30.21 in1023.0 mb 0.00 in0.0 mm 0.00 in/hr0.0 mm/hr 0.00 in0.0 mm
02:40 AM 45.4°F7.4°C 25.7°F-3.5°C 46% 1.9 mph E3.1 kmh E 2.7 mph4.3 kmh 30.21 in1023.0 mb 0.00 in0.0 mm 0.00 in/hr0.0 mm/hr 0.00 in0.0 mm
02:46 AM 45.0°F7.2°C 25.9°F-3.4°C 47% 1.1 mph E1.8 kmh E 3.4 mph5.5 kmh 30.21 in1023.0 mb 0.00 in0.0 mm 0.00 in/hr0.0 mm/hr 0.00 in0.0 mm
02:51 AM 44.6°F7.0°C 25.0°F-3.9°C 46% 0.6 mph E1.0 kmh E 3.4 mph5.5 kmh 30.21 in1023.0 mb 0.00 in0.0 mm 0.00 in/hr0.0 mm/hr 0.00 in0.0 mm
02:56 AM 44.3°F6.8°C 24.7°F-4.1°C 46% 1.0 mph SE1.6 kmh SE 1.8 mph2.9 kmh 30.21 in1023.0 mb 0.00 in0.0 mm 0.00 in/hr0.0 mm/hr 0.00 in0.0 mm
03:01 AM 43.9°F6.6°C 24.9°F-3.9°C 47% 0.7 mph SE1.1 kmh SE 1.8 mph2.9 kmh 30.21 in1023.0 mb 0.00 in0.0 mm 0.00 in/hr0.0 mm/hr 0.00 in0.0 mm
03:06 AM 43.6°F6.4°C 24.6°F-4.1°C 47% 1.4 mph SSE2.3 kmh SSE 2.0 mph3.2 kmh 30.21 in1023.0 mb 0.00 in0.0 mm 0.00 in/hr0.0 mm/hr 0.00 in0.0 mm
03:11 AM 43.6°F6.4°C 25.7°F-3.5°C 49% 1.1 mph S1.8 kmh S 2.0 mph3.2 kmh 30.21 in1023.0 mb 0.00 in0.0 mm 0.00 in/hr0.0 mm/hr 0.00 in0.0 mm
03:15 AM 43.4°F6.3°C 24.9°F-3.9°C 48% 1.1 mph SSE1.8 kmh SSE 1.8 mph2.9 kmh 30.20 in1022.7 mb 0.00 in0.0 mm 0.00 in/hr0.0 mm/hr 0.00 in0.0 mm
03:21 AM 43.2°F6.2°C 26.3°F-3.2°C 51% 1.0 mph SSW1.6 kmh SSW 1.8 mph2.9 kmh 30.20 in1022.7 mb 0.00 in0.0 mm 0.00 in/hr0.0 mm/hr 0.00 in0.0 mm
03:26 AM 43.2°F6.2°C 26.7°F-2.9°C 52% 1.7 mph SW2.7 kmh SW 2.0 mph3.2 kmh 30.20 in1022.7 mb 0.00 in0.0 mm 0.00 in/hr0.0 mm/hr 0.00 in0.0 mm
03:31 AM 43.0°F6.1°C 25.2°F-3.8°C 49% 1.0 mph SW1.6 kmh SW 2.0 mph3.2 kmh 30.20 in1022.7 mb 0.00 in0.0 mm 0.00 in/hr0.0 mm/hr 0.00 in0.0 mm
03:36 AM 42.8°F6.0°C 25.0°F-3.9°C 49% 1.0 mph SW1.6 kmh SW 1.8 mph2.9 kmh 30.20 in1022.7 mb 0.00 in0.0 mm 0.00 in/hr0.0 mm/hr 0.00 in0.0 mm
03:41 AM 42.7°F5.9°C 24.8°F-4.0°C 49% 1.8 mph SW2.9 kmh SW 2.5 mph4.0 kmh 30.20 in1022.7 mb 0.00 in0.0 mm 0.00 in/hr0.0 mm/hr 0.00 in0.0 mm
03:46 AM 42.3°F5.7°C 24.5°F-4.2°C 49% 1.4 mph SW2.3 kmh SW 2.5 mph4.0 kmh 30.20 in1022.7 mb 0.00 in0.0 mm 0.00 in/hr0.0 mm/hr 0.00 in0.0 mm
03:51 AM 42.3°F5.7°C 25.0°F-3.9°C 50% 0.9 mph SSW1.4 kmh SSW 2.0 mph3.2 kmh 30.20 in1022.7 mb 0.00 in0.0 mm 0.00 in/hr0.0 mm/hr 0.00 in0.0 mm
03:56 AM 42.3°F5.7°C 25.0°F-3.9°C 50% 0.3 mph SSW0.5 kmh SSW 1.8 mph2.9 kmh 30.20 in1022.7 mb 0.00 in0.0 mm 0.00 in/hr0.0 mm/hr 0.00 in0.0 mm
04:01 AM 42.3°F5.7°C 24.5°F-4.2°C 49% 1.1 mph WSW1.8 kmh WSW 1.3 mph2.1 kmh 30.20 in1022.7 mb 0.00 in0.0 mm 0.00 in/hr0.0 mm/hr 0.00 in0.0 mm
04:06 AM 42.1°F5.6°C 24.3°F-4.3°C 49% 1.6 mph SW2.6 kmh SW 2.2 mph3.5 kmh 30.20 in1022.7 mb 0.00 in0.0 mm 0.00 in/hr0.0 mm/hr 0.00 in0.0 mm
04:11 AM 41.9°F5.5°C 24.1°F-4.4°C 49% 1.0 mph WSW1.6 kmh WSW 2.2 mph3.5 kmh 30.20 in1022.7 mb 0.00 in0.0 mm 0.00 in/hr0.0 mm/hr 0.00 in0.0 mm
04:16 AM 41.8°F5.4°C 23.9°F-4.5°C 49% 1.3 mph WSW2.1 kmh WSW 1.8 mph2.9 kmh 30.20 in1022.7 mb 0.00 in0.0 mm 0.00 in/hr0.0 mm/hr 0.00 in0.0 mm
04:22 AM 41.6°F5.3°C 23.8°F-4.6°C 49% 1.5 mph WSW2.4 kmh WSW 1.8 mph2.9 kmh 30.20 in1022.7 mb 0.00 in0.0 mm 0.00 in/hr0.0 mm/hr 0.00 in0.0 mm
04:27 AM 41.6°F5.3°C 24.3°F-4.3°C 50% 2.7 mph WSW4.3 kmh WSW 3.8 mph6.1 kmh 30.20 in1022.7 mb 0.00 in0.0 mm 0.00 in/hr0.0 mm/hr 0.00 in0.0 mm
04:32 AM 41.8°F5.4°C 24.9°F-3.9°C 51% 1.5 mph W2.4 kmh W 3.8 mph6.1 kmh 30.20 in1022.7 mb 0.00 in0.0 mm 0.00 in/hr0.0 mm/hr 0.00 in0.0 mm
04:37 AM 42.3°F5.7°C 25.9°F-3.4°C 52% 1.4 mph W2.3 kmh W 2.9 mph4.7 kmh 30.20 in1022.7 mb 0.00 in0.0 mm 0.00 in/hr0.0 mm/hr 0.00 in0.0 mm
04:42 AM 42.7°F5.9°C 26.3°F-3.2°C 52% 0.7 mph WNW1.1 kmh WNW 2.9 mph4.7 kmh 30.20 in1022.7 mb 0.00 in0.0 mm 0.00 in/hr0.0 mm/hr 0.00 in0.0 mm
04:47 AM 42.8°F6.0°C 26.5°F-3.1°C 52% 0.6 mph NNW1.0 kmh NNW 1.3 mph2.1 kmh 30.21 in1023.0 mb 0.00 in0.0 mm 0.00 in/hr0.0 mm/hr 0.00 in0.0 mm
04:52 AM 42.8°F6.0°C 26.5°F-3.1°C 52% 1.6 mph NE2.6 kmh NE 2.5 mph4.0 kmh 30.21 in1023.0 mb 0.00 in0.0 mm 0.00 in/hr0.0 mm/hr 0.00 in0.0 mm
04:57 AM 42.1°F5.6°C 24.8°F-4.0°C 50% 0.8 mph NE1.3 kmh NE 2.7 mph4.3 kmh 30.21 in1023.0 mb 0.00 in0.0 mm 0.00 in/hr0.0 mm/hr 0.00 in0.0 mm
05:02 AM 41.6°F5.3°C 24.8°F-4.0°C 51% 1.2 mph ENE1.9 kmh ENE 2.7 mph4.3 kmh 30.21 in1023.0 mb 0.00 in0.0 mm 0.00 in/hr0.0 mm/hr 0.00 in0.0 mm
05:08 AM 41.0°F5.0°C 24.2°F-4.3°C 51% 0.7 mph ENE1.1 kmh ENE 1.8 mph2.9 kmh 30.21 in1023.0 mb 0.00 in0.0 mm 0.00 in/hr0.0 mm/hr 0.00 in0.0 mm
05:13 AM 40.5°F4.7°C 24.1°F-4.4°C 52% 0.9 mph ENE1.4 kmh ENE 2.0 mph3.2 kmh 30.22 in1023.4 mb 0.00 in0.0 mm 0.00 in/hr0.0 mm/hr 0.00 in0.0 mm
05:18 AM 40.1°F4.5°C 23.9°F-4.5°C 52% 0.8 mph NE1.3 kmh NE 2.0 mph3.2 kmh 30.21 in1023.0 mb 0.00 in0.0 mm 0.00 in/hr0.0 mm/hr 0.00 in0.0 mm
05:23 AM 39.8°F4.3°C 24.0°F-4.4°C 53% 1.1 mph NE1.8 kmh NE 1.6 mph2.6 kmh 30.21 in1023.0 mb 0.00 in0.0 mm 0.00 in/hr0.0 mm/hr 0.00 in0.0 mm
05:28 AM 39.4°F4.1°C 24.0°F-4.4°C 54% 0.3 mph NE0.5 kmh NE 1.6 mph2.6 kmh 30.22 in1023.4 mb 0.00 in0.0 mm 0.00 in/hr0.0 mm/hr 0.00 in0.0 mm
05:33 AM 39.2°F4.0°C 23.9°F-4.5°C 54% 0.4 mph NE0.6 kmh NE 1.1 mph1.8 kmh 30.22 in1023.4 mb 0.00 in0.0 mm 0.00 in/hr0.0 mm/hr 0.00 in0.0 mm
05:38 AM 38.9°F3.8°C 23.6°F-4.7°C 54% 0.4 mph NE0.6 kmh NE 0.4 mph0.6 kmh 30.22 in1023.4 mb 0.00 in0.0 mm 0.00 in/hr0.0 mm/hr 0.00 in0.0 mm
05:43 AM 38.5°F3.6°C 23.7°F-4.6°C 55% 0.2 mph ESE0.3 kmh ESE 0.4 mph0.6 kmh 30.22 in1023.4 mb 0.00 in0.0 mm 0.00 in/hr0.0 mm/hr 0.00 in0.0 mm
05:48 AM 38.5°F3.6°C 23.7°F-4.6°C 55% Calm Calm 0.2 mph0.3 kmh 30.22 in1023.4 mb 0.00 in0.0 mm 0.00 in/hr0.0 mm/hr 0.00 in0.0 mm
05:53 AM 38.2°F3.4°C 23.3°F-4.8°C 55% Calm Calm 0.4 mph0.6 kmh 30.23 in1023.7 mb 0.00 in0.0 mm 0.00 in/hr0.0 mm/hr 0.00 in0.0 mm
05:58 AM 38.0°F3.3°C 23.6°F-4.7°C 56% Calm Calm 0.4 mph0.6 kmh 30.23 in1023.7 mb 0.00 in0.0 mm 0.00 in/hr0.0 mm/hr 0.00 in0.0 mm
06:04 AM 37.8°F3.2°C 23.4°F-4.8°C 56% Calm Calm -- 30.23 in1023.7 mb 0.00 in0.0 mm 0.00 in/hr0.0 mm/hr 0.00 in0.0 mm
06:09 AM 37.6°F3.1°C 23.7°F-4.6°C 57% Calm Calm -- 30.23 in1023.7 mb 0.00 in0.0 mm 0.00 in/hr0.0 mm/hr 0.00 in0.0 mm
06:14 AM 37.4°F3.0°C 23.6°F-4.7°C 57% Calm Calm 0.4 mph0.6 kmh 30.23 in1023.7 mb 0.00 in0.0 mm 0.00 in/hr0.0 mm/hr 0.00 in0.0 mm
06:19 AM 37.4°F3.0°C 23.9°F-4.5°C 58% Calm Calm 0.4 mph0.6 kmh 30.23 in1023.7 mb 0.00 in0.0 mm 0.00 in/hr0.0 mm/hr 0.00 in0.0 mm
06:24 AM 37.4°F3.0°C 24.4°F-4.2°C 59% Calm Calm -- 30.23 in1023.7 mb 0.00 in0.0 mm 0.00 in/hr0.0 mm/hr 0.00 in0.0 mm
06:29 AM 37.6°F3.1°C 25.0°F-3.9°C 60% Calm Calm -- 30.23 in1023.7 mb 0.00 in0.0 mm 0.00 in/hr0.0 mm/hr 0.00 in0.0 mm
06:35 AM 37.6°F3.1°C 24.6°F-4.1°C 59% Calm Calm -- 30.24 in1024.0 mb 0.00 in0.0 mm 0.00 in/hr0.0 mm/hr 0.00 in0.0 mm
06:40 AM 37.4°F3.0°C 24.4°F-4.2°C 59% 0.5 mph NNE0.8 kmh NNE 0.7 mph1.1 kmh 30.23 in1023.7 mb 0.00 in0.0 mm 0.00 in/hr0.0 mm/hr 0.00 in0.0 mm
06:45 AM 37.3°F2.9°C 24.2°F-4.3°C 59% 0.2 mph 0.3 kmh 0.7 mph1.1 kmh 30.24 in1024.0 mb 0.00 in0.0 mm 0.00 in/hr0.0 mm/hr 0.00 in0.0 mm
06:50 AM 37.1°F2.8°C 24.1°F-4.4°C 59% 0.3 mph N0.5 kmh N 0.7 mph1.1 kmh 30.24 in1024.0 mb 0.00 in0.0 mm 0.00 in/hr0.0 mm/hr 0.00 in0.0 mm
06:55 AM 36.7°F2.6°C 24.2°F-4.3°C 60% 0.8 mph NE1.3 kmh NE 1.3 mph2.1 kmh 30.24 in1024.0 mb 0.00 in0.0 mm 0.00 in/hr0.0 mm/hr 0.00 in0.0 mm
07:00 AM 36.5°F2.5°C 24.0°F-4.4°C 60% 0.4 mph NNE0.6 kmh NNE 1.3 mph2.1 kmh 30.24 in1024.0 mb 0.00 in0.0 mm 0.00 in/hr0.0 mm/hr 0.00 in0.0 mm
07:05 AM 36.4°F2.4°C 23.9°F-4.5°C 60% 0.3 mph NNE0.5 kmh NNE 1.1 mph1.8 kmh 30.25 in1024.4 mb 0.00 in0.0 mm 0.00 in/hr0.0 mm/hr 0.00 in0.0 mm
07:10 AM 36.2°F2.3°C 23.7°F-4.6°C 60% 0.2 mph NNE0.3 kmh NNE 1.1 mph1.8 kmh 30.25 in1024.4 mb 0.00 in0.0 mm 0.00 in/hr0.0 mm/hr 0.00 in0.0 mm
07:15 AM 36.2°F2.3°C 23.7°F-4.6°C 60% Calm Calm 1.1 mph1.8 kmh 30.25 in1024.4 mb 0.00 in0.0 mm 0.00 in/hr0.0 mm/hr 0.00 in0.0 mm
07:20 AM 36.0°F2.2°C 24.0°F-4.4°C 61% 0.3 mph NNE0.5 kmh NNE 0.4 mph0.6 kmh 30.25 in1024.4 mb 0.00 in0.0 mm 0.00 in/hr0.0 mm/hr 0.00 in0.0 mm
07:25 AM 35.8°F2.1°C 23.8°F-4.6°C 61% 0.4 mph WSW0.6 kmh WSW 0.4 mph0.6 kmh 30.26 in1024.7 mb 0.00 in0.0 mm 0.00 in/hr0.0 mm/hr 0.00 in0.0 mm
07:30 AM 35.8°F2.1°C 23.8°F-4.6°C 61% 0.2 mph W0.3 kmh W 0.4 mph0.6 kmh 30.25 in1024.4 mb 0.00 in0.0 mm 0.00 in/hr0.0 mm/hr 0.00 in0.0 mm
07:35 AM 35.6°F2.0°C 23.9°F-4.5°C 62% Calm Calm 0.4 mph0.6 kmh 30.25 in1024.4 mb 0.00 in0.0 mm 0.00 in/hr0.0 mm/hr 0.00 in0.0 mm
07:41 AM 35.6°F2.0°C 23.9°F-4.5°C 62% Calm Calm 0.2 mph0.3 kmh 30.26 in1024.7 mb 0.00 in0.0 mm 0.00 in/hr0.0 mm/hr 0.00 in0.0 mm
07:46 AM 35.8°F2.1°C 24.9°F-3.9°C 64% Calm Calm -- 30.26 in1024.7 mb 0.00 in0.0 mm 0.00 in/hr0.0 mm/hr 0.00 in0.0 mm
07:51 AM 36.2°F2.3°C 25.2°F-3.8°C 64% Calm Calm -- 30.26 in1024.7 mb 0.00 in0.0 mm 0.00 in/hr0.0 mm/hr 0.00 in0.0 mm
07:56 AM 36.4°F2.4°C 24.9°F-3.9°C 63% Calm Calm 0.2 mph0.3 kmh 30.26 in1024.7 mb 0.00 in0.0 mm 0.00 in/hr0.0 mm/hr 0.00 in0.0 mm
08:01 AM 36.4°F2.4°C 24.9°F-3.9°C 63% Calm Calm 0.2 mph0.3 kmh 30.26 in1024.7 mb 0.00 in0.0 mm 0.00 in/hr0.0 mm/hr 0.00 in0.0 mm
08:06 AM 36.4°F2.4°C 24.9°F-3.9°C 63% 0.2 mph W0.3 kmh W 0.2 mph0.3 kmh 30.27 in1025.1 mb 0.00 in0.0 mm 0.00 in/hr0.0 mm/hr 0.00 in0.0 mm
08:10 AM 36.5°F2.5°C 25.5°F-3.6°C 64% 0.2 mph NNW0.3 kmh NNW 0.7 mph1.1 kmh 30.27 in1025.1 mb 0.00 in0.0 mm 0.00 in/hr0.0 mm/hr 0.00 in0.0 mm
08:15 AM 36.9°F2.7°C 25.8°F-3.4°C 64% Calm Calm 0.7 mph1.1 kmh 30.27 in1025.1 mb 0.00 in0.0 mm 0.00 in/hr0.0 mm/hr 0.00 in0.0 mm
08:20 AM 37.4°F3.0°C 26.7°F-2.9°C 65% 0.3 mph NW0.5 kmh NW 0.4 mph0.6 kmh 30.28 in1025.4 mb 0.00 in0.0 mm 0.00 in/hr0.0 mm/hr 0.00 in0.0 mm
08:25 AM 37.8°F3.2°C 27.1°F-2.7°C 65% 0.4 mph 0.6 kmh 0.4 mph0.6 kmh 30.28 in1025.4 mb 0.00 in0.0 mm 0.00 in/hr0.0 mm/hr 0.00 in0.0 mm
08:31 AM 38.5°F3.6°C 28.1°F-2.2°C 66% 0.9 mph N1.4 kmh N 1.6 mph2.6 kmh 30.28 in1025.4 mb 0.00 in0.0 mm 0.00 in/hr0.0 mm/hr 0.00 in0.0 mm
08:36 AM 39.2°F4.0°C 28.4°F-2.0°C 65% 1.3 mph N2.1 kmh N 2.0 mph3.2 kmh 30.28 in1025.4 mb 0.00 in0.0 mm 0.00 in/hr0.0 mm/hr 0.00 in0.0 mm
08:41 AM 40.0°F4.4°C 29.1°F-1.6°C 65% 0.5 mph N0.8 kmh N 2.0 mph3.2 kmh 30.29 in1025.7 mb 0.00 in0.0 mm 0.00 in/hr0.0 mm/hr 0.00 in0.0 mm
08:46 AM 40.5°F4.7°C 30.0°F-1.1°C 66% 0.5 mph N0.8 kmh N 1.6 mph2.6 kmh 30.29 in1025.7 mb 0.00 in0.0 mm 0.00 in/hr0.0 mm/hr 0.00 in0.0 mm
08:51 AM 41.0°F5.0°C 30.9°F-0.6°C 67% 1.2 mph N1.9 kmh N 1.8 mph2.9 kmh 30.29 in1025.7 mb 0.00 in0.0 mm 0.00 in/hr0.0 mm/hr 0.00 in0.0 mm
08:56 AM 41.6°F5.3°C 31.1°F-0.5°C 66% 0.5 mph NNW0.8 kmh NNW 2.7 mph4.3 kmh 30.29 in1025.7 mb 0.00 in0.0 mm 0.00 in/hr0.0 mm/hr 0.00 in0.0 mm
09:01 AM 42.1°F5.6°C 31.1°F-0.5°C 65% 0.7 mph NNW1.1 kmh NNW 2.7 mph4.3 kmh 30.29 in1025.7 mb 0.00 in0.0 mm 0.00 in/hr0.0 mm/hr 0.00 in0.0 mm
09:06 AM 42.8°F6.0°C 31.5°F-0.3°C 64% 0.4 mph NNW0.6 kmh NNW 1.3 mph2.1 kmh 30.29 in1025.7 mb 0.00 in0.0 mm 0.00 in/hr0.0 mm/hr 0.00 in0.0 mm
09:11 AM 43.4°F6.3°C 32.0°F0.0°C 64% 0.5 mph NNW0.8 kmh NNW 1.3 mph2.1 kmh 30.29 in1025.7 mb 0.00 in0.0 mm 0.00 in/hr0.0 mm/hr 0.00 in0.0 mm
09:16 AM 44.1°F6.7°C 33.5°F0.8°C 66% 0.6 mph N1.0 kmh N 1.1 mph1.8 kmh 30.29 in1025.7 mb 0.00 in0.0 mm 0.00 in/hr0.0 mm/hr 0.00 in0.0 mm
09:21 AM 45.0°F7.2°C 34.3°F1.3°C 66% 1.3 mph NNW2.1 kmh NNW 1.8 mph2.9 kmh 30.30 in1026.1 mb 0.00 in0.0 mm 0.00 in/hr0.0 mm/hr 0.00 in0.0 mm
09:26 AM 46.1°F7.8°C 34.9°F1.6°C 65% 0.6 mph N1.0 kmh N 1.8 mph2.9 kmh 30.30 in1026.1 mb 0.00 in0.0 mm 0.00 in/hr0.0 mm/hr 0.00 in0.0 mm
09:31 AM 47.2°F8.4°C 36.4°F2.4°C 66% 0.8 mph NNW1.3 kmh NNW 2.5 mph4.0 kmh 30.30 in1026.1 mb 0.00 in0.0 mm 0.00 in/hr0.0 mm/hr 0.00 in0.0 mm
09:36 AM 48.2°F9.0°C 37.0°F2.8°C 65% 1.2 mph N1.9 kmh N 2.5 mph4.0 kmh 30.30 in1026.1 mb 0.00 in0.0 mm 0.00 in/hr0.0 mm/hr 0.00 in0.0 mm
09:41 AM 49.3°F9.6°C 37.6°F3.1°C 64% 1.9 mph NNW3.1 kmh NNW 2.9 mph4.7 kmh 30.30 in1026.1 mb 0.00 in0.0 mm 0.00 in/hr0.0 mm/hr 0.00 in0.0 mm
09:47 AM 50.0°F10.0°C 38.4°F3.6°C 64% 1.1 mph N1.8 kmh N 2.9 mph4.7 kmh 30.31 in1026.4 mb 0.00 in0.0 mm 0.00 in/hr0.0 mm/hr 0.00 in0.0 mm
09:52 AM 50.8°F10.4°C 38.2°F3.4°C 62% 2.8 mph N4.5 kmh N 3.8 mph6.1 kmh 30.31 in1026.4 mb 0.00 in0.0 mm 0.00 in/hr0.0 mm/hr 0.00 in0.0 mm
09:57 AM 51.5°F10.8°C 38.4°F3.6°C 61% 1.5 mph N2.4 kmh N 3.8 mph6.1 kmh 30.31 in1026.4 mb 0.00 in0.0 mm 0.00 in/hr0.0 mm/hr 0.00 in0.0 mm
10:02 AM 52.2°F11.2°C 38.7°F3.7°C 60% 2.9 mph NNE4.7 kmh NNE 3.6 mph5.8 kmh 30.31 in1026.4 mb 0.00 in0.0 mm 0.00 in/hr0.0 mm/hr 0.00 in0.0 mm
10:07 AM 52.9°F11.6°C 39.0°F3.9°C 59% 1.9 mph N3.1 kmh N 3.6 mph5.8 kmh 30.31 in1026.4 mb 0.00 in0.0 mm 0.00 in/hr0.0 mm/hr 0.00 in0.0 mm
10:12 AM 53.8°F12.1°C 38.9°F3.8°C 57% 1.7 mph N2.7 kmh N 3.6 mph5.8 kmh 30.31 in1026.4 mb 0.00 in0.0 mm 0.00 in/hr0.0 mm/hr 0.00 in0.0 mm
10:17 AM 54.4°F12.4°C 38.9°F3.8°C 56% 2.5 mph NE4.0 kmh NE 3.6 mph5.8 kmh 30.32 in1026.8 mb 0.00 in0.0 mm 0.00 in/hr0.0 mm/hr 0.00 in0.0 mm
10:22 AM 54.7°F12.6°C 38.8°F3.8°C 55% 1.9 mph NE3.1 kmh NE 3.6 mph5.8 kmh 30.32 in1026.8 mb 0.00 in0.0 mm 0.00 in/hr0.0 mm/hr 0.00 in0.0 mm
10:27 AM 55.1°F12.8°C 39.1°F3.9°C 55% 1.8 mph NNE2.9 kmh NNE 3.6 mph5.8 kmh 30.32 in1026.8 mb 0.00 in0.0 mm 0.00 in/hr0.0 mm/hr 0.00 in0.0 mm
10:32 AM 55.6°F13.1°C 39.2°F4.0°C 54% 0.8 mph N1.3 kmh N 2.9 mph4.7 kmh 30.33 in1027.1 mb 0.00 in0.0 mm 0.00 in/hr0.0 mm/hr 0.00 in0.0 mm
10:37 AM 56.2°F13.4°C 39.7°F4.3°C 54% 0.7 mph N1.1 kmh N 2.5 mph4.0 kmh 30.33 in1027.1 mb 0.00 in0.0 mm 0.00 in/hr0.0 mm/hr 0.00 in0.0 mm
10:43 AM 56.9°F13.8°C 39.4°F4.1°C 52% 0.9 mph N1.4 kmh N 2.0 mph3.2 kmh 30.33 in1027.1 mb 0.00 in0.0 mm 0.00 in/hr0.0 mm/hr 0.00 in0.0 mm
10:48 AM 57.6°F14.2°C 37.4°F3.0°C 47% 2.7 mph NW4.3 kmh NW 4.0 mph6.4 kmh 30.32 in1026.8 mb 0.00 in0.0 mm 0.00 in/hr0.0 mm/hr 0.00 in0.0 mm
10:53 AM 58.0°F14.4°C 37.3°F2.9°C 46% 3.1 mph NW5.0 kmh NW 7.4 mph11.9 kmh 30.32 in1026.8 mb 0.00 in0.0 mm 0.00 in/hr0.0 mm/hr 0.00 in0.0 mm
10:58 AM 58.5°F14.7°C 38.3°F3.5°C 47% 1.7 mph NW2.7 kmh NW 7.4 mph11.9 kmh 30.33 in1027.1 mb 0.00 in0.0 mm 0.00 in/hr0.0 mm/hr 0.00 in0.0 mm
11:03 AM 59.0°F15.0°C 37.1°F2.8°C 44% 1.7 mph NW2.7 kmh NW 3.8 mph6.1 kmh 30.33 in1027.1 mb 0.00 in0.0 mm 0.00 in/hr0.0 mm/hr 0.00 in0.0 mm
11:08 AM 59.4°F15.2°C 35.1°F1.7°C 40% 2.3 mph NW3.7 kmh NW 3.8 mph6.1 kmh 30.33 in1027.1 mb 0.00 in0.0 mm 0.00 in/hr0.0 mm/hr 0.00 in0.0 mm
11:13 AM 59.9°F15.5°C 35.6°F2.0°C 40% 1.0 mph NW1.6 kmh NW 4.0 mph6.4 kmh 30.33 in1027.1 mb 0.00 in0.0 mm 0.00 in/hr0.0 mm/hr 0.00 in0.0 mm
11:18 AM 60.7°F15.9°C 33.3°F0.7°C 36% 2.5 mph NNW4.0 kmh NNW 4.0 mph6.4 kmh 30.33 in1027.1 mb 0.00 in0.0 mm 0.00 in/hr0.0 mm/hr 0.00 in0.0 mm
11:23 AM 61.0°F16.1°C 37.1°F2.8°C 41% 2.8 mph N4.5 kmh N 4.9 mph7.9 kmh 30.33 in1027.1 mb 0.00 in0.0 mm 0.00 in/hr0.0 mm/hr 0.00 in0.0 mm
11:28 AM 61.2°F16.2°C 38.4°F3.6°C 43% 3.8 mph N6.1 kmh N 4.9 mph7.9 kmh 30.33 in1027.1 mb 0.00 in0.0 mm 0.00 in/hr0.0 mm/hr 0.00 in0.0 mm
11:33 AM 61.2°F16.2°C 38.4°F3.6°C 43% 3.3 mph NNE5.3 kmh NNE 5.4 mph8.7 kmh 30.33 in1027.1 mb 0.00 in0.0 mm 0.00 in/hr0.0 mm/hr 0.00 in0.0 mm
11:38 AM 61.6°F16.4°C 38.7°F3.7°C 43% 2.9 mph NNE4.7 kmh NNE 5.4 mph8.7 kmh 30.33 in1027.1 mb 0.00 in0.0 mm 0.00 in/hr0.0 mm/hr 0.00 in0.0 mm
11:43 AM 61.9°F16.6°C 37.9°F3.3°C 41% 3.8 mph NNE6.1 kmh NNE 5.4 mph8.7 kmh 30.33 in1027.1 mb 0.00 in0.0 mm 0.00 in/hr0.0 mm/hr 0.00 in0.0 mm
11:48 AM 62.3°F16.8°C 38.3°F3.5°C 41% 2.9 mph N4.7 kmh N 5.4 mph8.7 kmh 30.33 in1027.1 mb 0.00 in0.0 mm 0.00 in/hr0.0 mm/hr 0.00 in0.0 mm
11:53 AM 62.5°F16.9°C 36.4°F2.4°C 38% 2.5 mph NNW4.0 kmh NNW 5.8 mph9.3 kmh 30.33 in1027.1 mb 0.00 in0.0 mm 0.00 in/hr0.0 mm/hr 0.00 in0.0 mm
11:58 AM 62.6°F17.0°C 35.8°F2.1°C 37% 4.1 mph N6.6 kmh N 5.8 mph9.3 kmh 30.33 in1027.1 mb 0.00 in0.0 mm 0.00 in/hr0.0 mm/hr 0.00 in0.0 mm
12:03 PM 62.8°F17.1°C 36.0°F2.2°C 37% 2.7 mph NNW4.3 kmh NNW 7.2 mph11.6 kmh 30.33 in1027.1 mb 0.00 in0.0 mm 0.00 in/hr0.0 mm/hr 0.00 in0.0 mm
12:08 PM 62.8°F17.1°C 36.0°F2.2°C 37% 3.7 mph N6.0 kmh N 7.2 mph11.6 kmh 30.33 in1027.1 mb 0.00 in0.0 mm 0.00 in/hr0.0 mm/hr 0.00 in0.0 mm
12:13 PM 63.0°F17.2°C 36.2°F2.3°C 37% 4.0 mph N6.4 kmh N 6.5 mph10.5 kmh 30.32 in1026.8 mb 0.00 in0.0 mm 0.00 in/hr0.0 mm/hr 0.00 in0.0 mm
12:18 PM 63.0°F17.2°C 36.2°F2.3°C 37% 1.5 mph NW2.4 kmh NW 6.5 mph10.5 kmh 30.32 in1026.8 mb 0.00 in0.0 mm 0.00 in/hr0.0 mm/hr 0.00 in0.0 mm
12:23 PM 63.5°F17.5°C 35.9°F2.2°C 36% 1.5 mph WNW2.4 kmh WNW 6.9 mph11.1 kmh 30.32 in1026.8 mb 0.00 in0.0 mm 0.00 in/hr0.0 mm/hr 0.00 in0.0 mm
12:28 PM 63.9°F17.7°C 36.3°F2.4°C 36% 1.5 mph NW2.4 kmh NW 6.9 mph11.1 kmh 30.32 in1026.8 mb 0.00 in0.0 mm 0.00 in/hr0.0 mm/hr 0.00 in0.0 mm
12:33 PM 64.1°F17.8°C 34.2°F1.2°C 33% 3.6 mph WNW5.8 kmh WNW 5.1 mph8.2 kmh 30.32 in1026.8 mb 0.00 in0.0 mm 0.00 in/hr0.0 mm/hr 0.00 in0.0 mm
12:38 PM 64.4°F18.0°C 35.3°F1.8°C 34% 2.5 mph N4.0 kmh N 5.1 mph8.2 kmh 30.31 in1026.4 mb 0.00 in0.0 mm 0.00 in/hr0.0 mm/hr 0.00 in0.0 mm
12:43 PM 64.6°F18.1°C 34.0°F1.1°C 32% 2.1 mph NNW3.4 kmh NNW 4.5 mph7.2 kmh 30.31 in1026.4 mb 0.00 in0.0 mm 0.00 in/hr0.0 mm/hr 0.00 in0.0 mm
12:48 PM 65.2°F18.4°C 33.8°F1.0°C 31% 3.2 mph NNW5.1 kmh NNW 4.5 mph7.2 kmh 30.31 in1026.4 mb 0.00 in0.0 mm 0.00 in/hr0.0 mm/hr 0.00 in0.0 mm
12:53 PM 65.5°F18.6°C 34.8°F1.6°C 32% 2.0 mph NNW3.2 kmh NNW 5.1 mph8.2 kmh 30.32 in1026.8 mb 0.00 in0.0 mm 0.00 in/hr0.0 mm/hr 0.00 in0.0 mm
12:58 PM 66.2°F19.0°C 36.2°F2.3°C 33% 2.3 mph NNW3.7 kmh NNW 5.1 mph8.2 kmh 30.32 in1026.8 mb 0.00 in0.0 mm 0.00 in/hr0.0 mm/hr 0.00 in0.0 mm
01:03 PM 66.8°F19.3°C 35.9°F2.2°C 32% 1.9 mph N3.1 kmh N 5.8 mph9.3 kmh 30.32 in1026.8 mb 0.00 in0.0 mm 0.00 in/hr0.0 mm/hr 0.00 in0.0 mm
01:08 PM 67.0°F19.4°C 36.1°F2.3°C 32% 2.5 mph N4.0 kmh N 5.8 mph9.3 kmh 30.31 in1026.4 mb 0.00 in0.0 mm 0.00 in/hr0.0 mm/hr 0.00 in0.0 mm
01:12 PM 67.5°F19.7°C 35.0°F1.7°C 30% 3.1 mph N5.0 kmh N 5.8 mph9.3 kmh 30.32 in1026.8 mb 0.00 in0.0 mm 0.00 in/hr0.0 mm/hr 0.00 in0.0 mm
01:17 PM 67.9°F19.9°C 36.1°F2.3°C 31% 2.3 mph NW3.7 kmh NW 5.8 mph9.3 kmh 30.32 in1026.8 mb 0.00 in0.0 mm 0.00 in/hr0.0 mm/hr 0.00 in0.0 mm
01:22 PM 67.9°F19.9°C 36.1°F2.3°C 31% 2.6 mph WNW4.2 kmh WNW 5.4 mph8.7 kmh 30.31 in1026.4 mb 0.00 in0.0 mm 0.00 in/hr0.0 mm/hr 0.00 in0.0 mm
01:27 PM 67.9°F19.9°C 35.3°F1.8°C 30% 3.8 mph N6.1 kmh N 5.8 mph9.3 kmh 30.31 in1026.4 mb 0.00 in0.0 mm 0.00 in/hr0.0 mm/hr 0.00 in0.0 mm
01:32 PM 68.2°F20.1°C 36.4°F2.4°C 31% 3.2 mph NNW5.1 kmh NNW 5.8 mph9.3 kmh 30.31 in1026.4 mb 0.00 in0.0 mm 0.00 in/hr0.0 mm/hr 0.00 in0.0 mm
01:37 PM 68.2°F20.1°C 35.7°F2.1°C 30% 3.5 mph WSW5.6 kmh WSW 6.7 mph10.8 kmh 30.31 in1026.4 mb 0.00 in0.0 mm 0.00 in/hr0.0 mm/hr 0.00 in0.0 mm
01:42 PM 68.4°F20.2°C 34.8°F1.6°C 29% 4.2 mph W6.8 kmh W 6.7 mph10.8 kmh 30.31 in1026.4 mb 0.00 in0.0 mm 0.00 in/hr0.0 mm/hr 0.00 in0.0 mm
01:47 PM 68.4°F20.2°C 35.8°F2.1°C 30% 3.0 mph N4.8 kmh N 6.3 mph10.1 kmh 30.31 in1026.4 mb 0.00 in0.0 mm 0.00 in/hr0.0 mm/hr 0.00 in0.0 mm
01:52 PM 68.6°F20.3°C 35.9°F2.2°C 30% 2.8 mph NNW4.5 kmh NNW 4.5 mph7.2 kmh 30.31 in1026.4 mb 0.00 in0.0 mm 0.00 in/hr0.0 mm/hr 0.00 in0.0 mm
01:57 PM 68.8°F20.4°C 36.1°F2.3°C 30% 2.9 mph N4.7 kmh N 6.9 mph11.1 kmh 30.31 in1026.4 mb 0.00 in0.0 mm 0.00 in/hr0.0 mm/hr 0.00 in0.0 mm
02:02 PM 68.9°F20.5°C 36.3°F2.4°C 30% 5.5 mph 8.9 kmh 6.9 mph11.1 kmh 30.31 in1026.4 mb 0.00 in0.0 mm 0.00 in/hr0.0 mm/hr 0.00 in0.0 mm
02:07 PM 68.4°F20.2°C 35.8°F2.1°C 30% 5.3 mph N8.5 kmh N 8.3 mph13.4 kmh 30.30 in1026.1 mb 0.00 in0.0 mm 0.00 in/hr0.0 mm/hr 0.00 in0.0 mm
02:12 PM 68.6°F20.3°C 35.9°F2.2°C 30% 5.0 mph NNE8.0 kmh NNE 9.2 mph14.8 kmh 30.30 in1026.1 mb 0.00 in0.0 mm 0.00 in/hr0.0 mm/hr 0.00 in0.0 mm
02:17 PM 68.4°F20.2°C 34.8°F1.6°C 29% 5.4 mph N8.7 kmh N 9.2 mph14.8 kmh 30.30 in1026.1 mb 0.00 in0.0 mm 0.00 in/hr0.0 mm/hr 0.00 in0.0 mm
02:22 PM 68.6°F20.3°C 33.9°F1.1°C 28% 3.9 mph N6.3 kmh N 8.9 mph14.3 kmh 30.30 in1026.1 mb 0.00 in0.0 mm 0.00 in/hr0.0 mm/hr 0.00 in0.0 mm
02:27 PM 68.6°F20.3°C 33.9°F1.1°C 28% 5.9 mph N9.5 kmh N 10.7 mph17.2 kmh 30.29 in1025.7 mb 0.00 in0.0 mm 0.00 in/hr0.0 mm/hr 0.00 in0.0 mm
02:32 PM 68.9°F20.5°C 34.3°F1.3°C 28% 4.5 mph NNE7.2 kmh NNE 10.7 mph17.2 kmh 30.30 in1026.1 mb 0.00 in0.0 mm 0.00 in/hr0.0 mm/hr 0.00 in0.0 mm
02:37 PM 69.5°F20.8°C 32.8°F0.4°C 26% 3.2 mph NNW5.1 kmh NNW 6.5 mph10.5 kmh 30.29 in1025.7 mb 0.00 in0.0 mm 0.00 in/hr0.0 mm/hr 0.00 in0.0 mm
02:42 PM 69.3°F20.7°C 32.6°F0.3°C 26% 4.1 mph NNE6.6 kmh NNE 6.9 mph11.1 kmh 30.29 in1025.7 mb 0.00 in0.0 mm 0.00 in/hr0.0 mm/hr 0.00 in0.0 mm
02:47 PM 69.7°F20.9°C 32.9°F0.5°C 26% 2.3 mph NNE3.7 kmh NNE 6.9 mph11.1 kmh 30.29 in1025.7 mb 0.00 in0.0 mm 0.00 in/hr0.0 mm/hr 0.00 in0.0 mm
02:52 PM 69.8°F21.0°C 32.0°F0.0°C 25% 3.7 mph N6.0 kmh N 6.0 mph9.7 kmh 30.29 in1025.7 mb 0.00 in0.0 mm 0.00 in/hr0.0 mm/hr 0.00 in0.0 mm
02:57 PM 70.2°F21.2°C 32.3°F0.2°C 25% 1.9 mph NE3.1 kmh NE 4.9 mph7.9 kmh 30.29 in1025.7 mb 0.00 in0.0 mm 0.00 in/hr0.0 mm/hr 0.00 in0.0 mm
03:02 PM 70.9°F21.6°C 32.9°F0.5°C 25% 3.5 mph N5.6 kmh N 5.4 mph8.7 kmh 30.29 in1025.7 mb 0.00 in0.0 mm 0.00 in/hr0.0 mm/hr 0.00 in0.0 mm
03:07 PM 71.1°F21.7°C 33.1°F0.6°C 25% 5.0 mph NNE8.0 kmh NNE 6.0 mph9.7 kmh 30.29 in1025.7 mb 0.00 in0.0 mm 0.00 in/hr0.0 mm/hr 0.00 in0.0 mm
03:12 PM 70.9°F21.6°C 32.9°F0.5°C 25% 1.6 mph NNW2.6 kmh NNW 6.0 mph9.7 kmh 30.29 in1025.7 mb 0.00 in0.0 mm 0.00 in/hr0.0 mm/hr 0.00 in0.0 mm
03:17 PM 71.5°F21.9°C 33.4°F0.8°C 25% 3.5 mph NNE5.6 kmh NNE 5.6 mph9.0 kmh 30.29 in1025.7 mb 0.00 in0.0 mm 0.00 in/hr0.0 mm/hr 0.00 in0.0 mm
03:22 PM 71.5°F21.9°C 32.4°F0.2°C 24% 4.6 mph NE7.4 kmh NE 5.6 mph9.0 kmh 30.29 in1025.7 mb 0.00 in0.0 mm 0.00 in/hr0.0 mm/hr 0.00 in0.0 mm
03:27 PM 71.6°F22.0°C 32.6°F0.3°C 24% 3.1 mph NNE5.0 kmh NNE 5.4 mph8.7 kmh 30.29 in1025.7 mb 0.00 in0.0 mm 0.00 in/hr0.0 mm/hr 0.00 in0.0 mm
03:32 PM 71.8°F22.1°C 32.7°F0.4°C 24% 2.9 mph NE4.7 kmh NE 4.9 mph7.9 kmh 30.29 in1025.7 mb 0.00 in0.0 mm 0.00 in/hr0.0 mm/hr 0.00 in0.0 mm
03:37 PM 72.4°F22.4°C 33.1°F0.6°C 24% 2.3 mph N3.7 kmh N 4.3 mph6.9 kmh 30.28 in1025.4 mb 0.00 in0.0 mm 0.00 in/hr0.0 mm/hr 0.00 in0.0 mm
03:42 PM 72.7°F22.6°C 32.5°F0.3°C 23% 1.4 mph NNW2.3 kmh NNW 3.6 mph5.8 kmh 30.28 in1025.4 mb 0.00 in0.0 mm 0.00 in/hr0.0 mm/hr 0.00 in0.0 mm
03:47 PM 73.1°F22.8°C 33.8°F1.0°C 24% 2.0 mph WNW3.2 kmh WNW 3.1 mph5.0 kmh 30.28 in1025.4 mb 0.00 in0.0 mm 0.00 in/hr0.0 mm/hr 0.00 in0.0 mm
03:53 PM 73.4°F23.0°C 34.1°F1.2°C 24% 2.7 mph N4.3 kmh N 4.0 mph6.4 kmh 30.28 in1025.4 mb 0.00 in0.0 mm 0.00 in/hr0.0 mm/hr 0.00 in0.0 mm
03:58 PM 73.4°F23.0°C 34.1°F1.2°C 24% 1.8 mph NE2.9 kmh NE 4.0 mph6.4 kmh 30.28 in1025.4 mb 0.00 in0.0 mm 0.00 in/hr0.0 mm/hr 0.00 in0.0 mm
04:03 PM 73.4°F23.0°C 34.1°F1.2°C 24% 0.8 mph NNW1.3 kmh NNW 4.0 mph6.4 kmh 30.28 in1025.4 mb 0.00 in0.0 mm 0.00 in/hr0.0 mm/hr 0.00 in0.0 mm
04:08 PM 73.8°F23.2°C 33.4°F0.8°C 23% 0.9 mph NNW1.4 kmh NNW 3.1 mph5.0 kmh 30.28 in1025.4 mb 0.00 in0.0 mm 0.00 in/hr0.0 mm/hr 0.00 in0.0 mm
04:13 PM 74.2°F23.4°C 33.7°F0.9°C 23% 1.8 mph N2.9 kmh N 3.4 mph5.5 kmh 30.29 in1025.7 mb 0.00 in0.0 mm 0.00 in/hr0.0 mm/hr 0.00 in0.0 mm
04:18 PM 74.0°F23.3°C 33.6°F0.9°C 23% 1.3 mph NE2.1 kmh NE 3.4 mph5.5 kmh 30.28 in1025.4 mb 0.00 in0.0 mm 0.00 in/hr0.0 mm/hr 0.00 in0.0 mm
04:23 PM 74.3°F23.5°C 33.9°F1.1°C 23% 1.1 mph NE1.8 kmh NE 3.4 mph5.5 kmh 30.28 in1025.4 mb 0.00 in0.0 mm 0.00 in/hr0.0 mm/hr 0.00 in0.0 mm
04:28 PM 75.1°F23.9°C 34.5°F1.4°C 23% 1.4 mph ENE2.3 kmh ENE 3.1 mph5.0 kmh 30.28 in1025.4 mb 0.00 in0.0 mm 0.00 in/hr0.0 mm/hr 0.00 in0.0 mm
04:33 PM 74.9°F23.8°C 34.3°F1.3°C 23% 0.8 mph W1.3 kmh W 5.4 mph8.7 kmh 30.28 in1025.4 mb 0.00 in0.0 mm 0.00 in/hr0.0 mm/hr 0.00 in0.0 mm
04:38 PM 74.9°F23.8°C 34.3°F1.3°C 23% 0.8 mph N1.3 kmh N 5.4 mph8.7 kmh 30.28 in1025.4 mb 0.00 in0.0 mm 0.00 in/hr0.0 mm/hr 0.00 in0.0 mm
04:43 PM 74.9°F23.8°C 34.3°F1.3°C 23% 2.2 mph NE3.5 kmh NE 5.4 mph8.7 kmh 30.28 in1025.4 mb 0.00 in0.0 mm 0.00 in/hr0.0 mm/hr 0.00 in0.0 mm
04:48 PM 74.9°F23.8°C 34.3°F1.3°C 23% 1.4 mph NE2.3 kmh NE 5.4 mph8.7 kmh 30.28 in1025.4 mb 0.00 in0.0 mm 0.00 in/hr0.0 mm/hr 0.00 in0.0 mm
04:53 PM 74.9°F23.8°C 34.3°F1.3°C 23% 1.9 mph NE3.1 kmh NE 4.3 mph6.9 kmh 30.28 in1025.4 mb 0.00 in0.0 mm 0.00 in/hr0.0 mm/hr 0.00 in0.0 mm
04:58 PM 74.9°F23.8°C 34.3°F1.3°C 23% 2.0 mph ESE3.2 kmh ESE 3.4 mph5.5 kmh 30.28 in1025.4 mb 0.00 in0.0 mm 0.00 in/hr0.0 mm/hr 0.00 in0.0 mm
05:03 PM 75.2°F24.0°C 34.6°F1.4°C 23% 0.6 mph SE1.0 kmh SE 3.4 mph5.5 kmh 30.28 in1025.4 mb 0.00 in0.0 mm 0.00 in/hr0.0 mm/hr 0.00 in0.0 mm
05:08 PM 75.6°F24.2°C 33.8°F1.0°C 22% 1.1 mph SW1.8 kmh SW 2.2 mph3.5 kmh 30.28 in1025.4 mb 0.00 in0.0 mm 0.00 in/hr0.0 mm/hr 0.00 in0.0 mm
05:13 PM 76.0°F24.4°C 34.1°F1.2°C 22% 0.7 mph N1.1 kmh N 2.2 mph3.5 kmh 30.27 in1025.1 mb 0.00 in0.0 mm 0.00 in/hr0.0 mm/hr 0.00 in0.0 mm
05:18 PM 76.0°F24.4°C 34.1°F1.2°C 22% 1.1 mph NW1.8 kmh NW 2.5 mph4.0 kmh 30.28 in1025.4 mb 0.00 in0.0 mm 0.00 in/hr0.0 mm/hr 0.00 in0.0 mm
05:23 PM 76.0°F24.4°C 33.1°F0.6°C 21% 0.8 mph 1.3 kmh 2.5 mph4.0 kmh 30.28 in1025.4 mb 0.00 in0.0 mm 0.00 in/hr0.0 mm/hr 0.00 in0.0 mm
05:28 PM 76.0°F24.4°C 34.1°F1.2°C 22% 2.0 mph 3.2 kmh 2.7 mph4.3 kmh 30.28 in1025.4 mb 0.00 in0.0 mm 0.00 in/hr0.0 mm/hr 0.00 in0.0 mm
05:33 PM 75.4°F24.1°C 33.7°F0.9°C 22% 1.7 mph W2.7 kmh W 3.4 mph5.5 kmh 30.28 in1025.4 mb 0.00 in0.0 mm 0.00 in/hr0.0 mm/hr 0.00 in0.0 mm
05:38 PM 74.9°F23.8°C 33.3°F0.7°C 22% 1.3 mph NNW2.1 kmh NNW 3.4 mph5.5 kmh 30.28 in1025.4 mb 0.00 in0.0 mm 0.00 in/hr0.0 mm/hr 0.00 in0.0 mm
05:43 PM 74.7°F23.7°C 34.1°F1.2°C 23% 0.4 mph N0.6 kmh N 3.4 mph5.5 kmh 30.28 in1025.4 mb 0.00 in0.0 mm 0.00 in/hr0.0 mm/hr 0.00 in0.0 mm
05:48 PM 74.5°F23.6°C 32.9°F0.5°C 22% 1.4 mph NNW2.3 kmh NNW 3.4 mph5.5 kmh 30.28 in1025.4 mb 0.00 in0.0 mm 0.00 in/hr0.0 mm/hr 0.00 in0.0 mm
05:53 PM 74.3°F23.5°C 33.9°F1.1°C 23% 0.9 mph WNW1.4 kmh WNW 3.8 mph6.1 kmh 30.28 in1025.4 mb 0.00 in0.0 mm 0.00 in/hr0.0 mm/hr 0.00 in0.0 mm
05:58 PM 74.2°F23.4°C 32.7°F0.4°C 22% 2.5 mph N4.0 kmh N 3.8 mph6.1 kmh 30.28 in1025.4 mb 0.00 in0.0 mm 0.00 in/hr0.0 mm/hr 0.00 in0.0 mm
06:03 PM 73.8°F23.2°C 33.4°F0.8°C 23% 1.2 mph NW1.9 kmh NW 4.3 mph6.9 kmh 30.27 in1025.1 mb 0.00 in0.0 mm 0.00 in/hr0.0 mm/hr 0.00 in0.0 mm
06:07 PM 73.6°F23.1°C 33.2°F0.7°C 23% 2.5 mph N4.0 kmh N 4.3 mph6.9 kmh 30.28 in1025.4 mb 0.00 in0.0 mm 0.00 in/hr0.0 mm/hr 0.00 in0.0 mm
06:12 PM 72.9°F22.7°C 32.6°F0.3°C 23% 2.5 mph N4.0 kmh N 3.6 mph5.8 kmh 30.28 in1025.4 mb 0.00 in0.0 mm 0.00 in/hr0.0 mm/hr 0.00 in0.0 mm
06:17 PM 72.2°F22.3°C 32.0°F0.0°C 23% 2.4 mph N3.9 kmh N 3.6 mph5.8 kmh 30.28 in1025.4 mb 0.00 in0.0 mm 0.00 in/hr0.0 mm/hr 0.00 in0.0 mm
06:22 PM 71.8°F22.1°C 32.7°F0.4°C 24% 4.1 mph NNE6.6 kmh NNE 4.7 mph7.6 kmh 30.28 in1025.4 mb 0.00 in0.0 mm 0.00 in/hr0.0 mm/hr 0.00 in0.0 mm
06:27 PM 71.3°F21.8°C 32.2°F0.1°C 24% 2.8 mph 4.5 kmh 4.7 mph7.6 kmh 30.28 in1025.4 mb 0.00 in0.0 mm 0.00 in/hr0.0 mm/hr 0.00 in0.0 mm
06:32 PM 70.6°F21.4°C 31.7°F-0.2°C 24% 2.8 mph N4.5 kmh N 4.0 mph6.4 kmh 30.28 in1025.4 mb 0.00 in0.0 mm 0.00 in/hr0.0 mm/hr 0.00 in0.0 mm
06:37 PM 69.8°F21.0°C 32.0°F0.0°C 25% 1.1 mph NE1.8 kmh NE 4.0 mph6.4 kmh 30.28 in1025.4 mb 0.00 in0.0 mm 0.00 in/hr0.0 mm/hr 0.00 in0.0 mm
06:42 PM 68.8°F20.4°C 31.2°F-0.4°C 25% 1.3 mph NNE2.1 kmh NNE 3.4 mph5.5 kmh 30.28 in1025.4 mb 0.00 in0.0 mm 0.00 in/hr0.0 mm/hr 0.00 in0.0 mm
06:47 PM 68.0°F20.0°C 30.5°F-0.8°C 25% 1.3 mph NE2.1 kmh NE 3.4 mph5.5 kmh 30.28 in1025.4 mb 0.00 in0.0 mm 0.00 in/hr0.0 mm/hr 0.00 in0.0 mm
06:52 PM 67.3°F19.6°C 30.9°F-0.6°C 26% 2.2 mph NE3.5 kmh NE 3.1 mph5.0 kmh 30.29 in1025.7 mb 0.00 in0.0 mm 0.00 in/hr0.0 mm/hr 0.00 in0.0 mm
06:57 PM 66.8°F19.3°C 30.4°F-0.9°C 26% 1.9 mph NE3.1 kmh NE 3.1 mph5.0 kmh 30.29 in1025.7 mb 0.00 in0.0 mm 0.00 in/hr0.0 mm/hr 0.00 in0.0 mm
07:02 PM 66.2°F19.0°C 30.0°F-1.1°C 26% 1.0 mph NE1.6 kmh NE 3.4 mph5.5 kmh 30.29 in1025.7 mb 0.00 in0.0 mm 0.00 in/hr0.0 mm/hr 0.00 in0.0 mm
07:07 PM 65.7°F18.7°C 31.5°F-0.3°C 28% 1.1 mph NE1.8 kmh NE 3.4 mph5.5 kmh 30.29 in1025.7 mb 0.00 in0.0 mm 0.00 in/hr0.0 mm/hr 0.00 in0.0 mm
07:12 PM 65.3°F18.5°C 31.2°F-0.4°C 28% 0.8 mph NE1.3 kmh NE 1.8 mph2.9 kmh 30.29 in1025.7 mb 0.00 in0.0 mm 0.00 in/hr0.0 mm/hr 0.00 in0.0 mm
07:17 PM 64.8°F18.2°C 30.8°F-0.7°C 28% Calm Calm 1.8 mph2.9 kmh 30.29 in1025.7 mb 0.00 in0.0 mm 0.00 in/hr0.0 mm/hr 0.00 in0.0 mm
07:22 PM 64.6°F18.1°C 31.6°F-0.2°C 29% Calm Calm 1.1 mph1.8 kmh 30.29 in1025.7 mb 0.00 in0.0 mm 0.00 in/hr0.0 mm/hr 0.00 in0.0 mm
07:27 PM 64.4°F18.0°C 31.4°F-0.3°C 29% Calm Calm -- 30.29 in1025.7 mb 0.00 in0.0 mm 0.00 in/hr0.0 mm/hr 0.00 in0.0 mm
07:32 PM 63.9°F17.7°C 30.0°F-1.1°C 28% 0.4 mph ENE0.6 kmh ENE 0.7 mph1.1 kmh 30.29 in1025.7 mb 0.00 in0.0 mm 0.00 in/hr0.0 mm/hr 0.00 in0.0 mm
07:37 PM 63.5°F17.5°C 29.6°F-1.3°C 28% 0.6 mph ENE1.0 kmh ENE 0.9 mph1.4 kmh 30.29 in1025.7 mb 0.00 in0.0 mm 0.00 in/hr0.0 mm/hr 0.00 in0.0 mm
07:42 PM 63.2°F17.3°C 30.3°F-0.9°C 29% 0.8 mph N1.3 kmh N 1.1 mph1.8 kmh 30.29 in1025.7 mb 0.00 in0.0 mm 0.00 in/hr0.0 mm/hr 0.00 in0.0 mm
07:47 PM 63.0°F17.2°C 30.2°F-1.0°C 29% 0.4 mph WNW0.6 kmh WNW 1.1 mph1.8 kmh 30.29 in1025.7 mb 0.00 in0.0 mm 0.00 in/hr0.0 mm/hr 0.00 in0.0 mm
07:52 PM 62.8°F17.1°C 30.0°F-1.1°C 29% Calm Calm 0.7 mph1.1 kmh 30.29 in1025.7 mb 0.00 in0.0 mm 0.00 in/hr0.0 mm/hr 0.00 in0.0 mm
07:57 PM 62.5°F16.9°C 30.6°F-0.8°C 30% Calm Calm 0.2 mph0.3 kmh 30.29 in1025.7 mb 0.00 in0.0 mm 0.00 in/hr0.0 mm/hr 0.00 in0.0 mm
08:02 PM 62.1°F16.7°C 30.3°F-0.9°C 30% Calm Calm -- 30.29 in1025.7 mb 0.00 in0.0 mm 0.00 in/hr0.0 mm/hr 0.00 in0.0 mm
08:07 PM 61.7°F16.5°C 30.7°F-0.7°C 31% 0.8 mph SSW1.3 kmh SSW 1.6 mph2.6 kmh 30.29 in1025.7 mb 0.00 in0.0 mm 0.00 in/hr0.0 mm/hr 0.00 in0.0 mm
08:12 PM 61.4°F16.3°C 31.1°F-0.5°C 32% 1.5 mph SSW2.4 kmh SSW 2.9 mph4.7 kmh 30.29 in1025.7 mb 0.00 in0.0 mm 0.00 in/hr0.0 mm/hr 0.00 in0.0 mm
08:17 PM 60.8°F16.0°C 30.6°F-0.8°C 32% 1.7 mph SW2.7 kmh SW 2.9 mph4.7 kmh 30.29 in1025.7 mb 0.00 in0.0 mm 0.00 in/hr0.0 mm/hr 0.00 in0.0 mm
08:22 PM 60.1°F15.6°C 30.7°F-0.7°C 33% 1.9 mph SW3.1 kmh SW 2.9 mph4.7 kmh 30.30 in1026.1 mb 0.00 in0.0 mm 0.00 in/hr0.0 mm/hr 0.00 in0.0 mm
08:27 PM 59.4°F15.2°C 30.2°F-1.0°C 33% 1.5 mph SW2.4 kmh SW 2.9 mph4.7 kmh 30.30 in1026.1 mb 0.00 in0.0 mm 0.00 in/hr0.0 mm/hr 0.00 in0.0 mm
08:32 PM 58.7°F14.8°C 30.3°F-0.9°C 34% 1.4 mph SW2.3 kmh SW 1.8 mph2.9 kmh 30.30 in1026.1 mb 0.00 in0.0 mm 0.00 in/hr0.0 mm/hr 0.00 in0.0 mm
08:37 PM 58.3°F14.6°C 29.9°F-1.2°C 34% 1.5 mph SW2.4 kmh SW 1.8 mph2.9 kmh 30.30 in1026.1 mb 0.00 in0.0 mm 0.00 in/hr0.0 mm/hr 0.00 in0.0 mm
08:43 PM 58.0°F14.4°C 31.0°F-0.6°C 36% 1.9 mph SW3.1 kmh SW 2.5 mph4.0 kmh 30.31 in1026.4 mb 0.00 in0.0 mm 0.00 in/hr0.0 mm/hr 0.00 in0.0 mm
08:48 PM 57.6°F14.2°C 30.6°F-0.8°C 36% 1.1 mph SW1.8 kmh SW 2.7 mph4.3 kmh 30.31 in1026.4 mb 0.00 in0.0 mm 0.00 in/hr0.0 mm/hr 0.00 in0.0 mm
08:53 PM 57.2°F14.0°C 30.3°F-0.9°C 36% 1.5 mph SW2.4 kmh SW 2.7 mph4.3 kmh 30.31 in1026.4 mb 0.00 in0.0 mm 0.00 in/hr0.0 mm/hr 0.00 in0.0 mm
08:58 PM 56.9°F13.8°C 30.7°F-0.7°C 37% 1.2 mph SW1.9 kmh SW 1.8 mph2.9 kmh 30.31 in1026.4 mb 0.00 in0.0 mm 0.00 in/hr0.0 mm/hr 0.00 in0.0 mm
09:03 PM 56.5°F13.6°C 30.3°F-0.9°C 37% 1.4 mph SW2.3 kmh SW 1.8 mph2.9 kmh 30.31 in1026.4 mb 0.00 in0.0 mm 0.00 in/hr0.0 mm/hr 0.00 in0.0 mm
09:08 PM 56.2°F13.4°C 30.8°F-0.7°C 38% 1.3 mph SW2.1 kmh SW 1.8 mph2.9 kmh 30.31 in1026.4 mb 0.00 in0.0 mm 0.00 in/hr0.0 mm/hr 0.00 in0.0 mm
09:13 PM 55.8°F13.2°C 31.2°F-0.4°C 39% 1.7 mph SW2.7 kmh SW 2.2 mph3.5 kmh 30.31 in1026.4 mb 0.00 in0.0 mm 0.00 in/hr0.0 mm/hr 0.00 in0.0 mm
09:18 PM 55.4°F13.0°C 30.8°F-0.7°C 39% 2.0 mph SW3.2 kmh SW 2.9 mph4.7 kmh 30.31 in1026.4 mb 0.00 in0.0 mm 0.00 in/hr0.0 mm/hr 0.00 in0.0 mm
09:23 PM 55.3°F12.9°C 30.6°F-0.8°C 39% 1.2 mph SW1.9 kmh SW 2.9 mph4.7 kmh 30.31 in1026.4 mb 0.00 in0.0 mm 0.00 in/hr0.0 mm/hr 0.00 in0.0 mm
09:28 PM 55.1°F12.8°C 30.5°F-0.8°C 39% 1.5 mph SW2.4 kmh SW 2.7 mph4.3 kmh 30.31 in1026.4 mb 0.00 in0.0 mm 0.00 in/hr0.0 mm/hr 0.00 in0.0 mm
09:33 PM 54.7°F12.6°C 30.2°F-1.0°C 39% 1.7 mph SW2.7 kmh SW 2.0 mph3.2 kmh 30.31 in1026.4 mb 0.00 in0.0 mm 0.00 in/hr0.0 mm/hr 0.00 in0.0 mm
09:38 PM 54.5°F12.5°C 30.7°F-0.7°C 40% 2.0 mph SW3.2 kmh SW 3.4 mph5.5 kmh 30.31 in1026.4 mb 0.00 in0.0 mm 0.00 in/hr0.0 mm/hr 0.00 in0.0 mm
09:43 PM 54.4°F12.4°C 30.5°F-0.8°C 40% 1.3 mph WSW2.1 kmh WSW 3.4 mph5.5 kmh 30.31 in1026.4 mb 0.00 in0.0 mm 0.00 in/hr0.0 mm/hr 0.00 in0.0 mm
09:48 PM 54.4°F12.4°C 30.5°F-0.8°C 40% 1.4 mph WSW2.3 kmh WSW 3.1 mph5.0 kmh 30.31 in1026.4 mb 0.00 in0.0 mm 0.00 in/hr0.0 mm/hr 0.00 in0.0 mm
09:53 PM 54.0°F12.2°C 30.3°F-0.9°C 40% 1.1 mph WSW1.8 kmh WSW 2.0 mph3.2 kmh 30.31 in1026.4 mb 0.00 in0.0 mm 0.00 in/hr0.0 mm/hr 0.00 in0.0 mm
09:58 PM 54.0°F12.2°C 30.3°F-0.9°C 40% 0.8 mph WSW1.3 kmh WSW 1.6 mph2.6 kmh 30.32 in1026.8 mb 0.00 in0.0 mm 0.00 in/hr0.0 mm/hr 0.00 in0.0 mm
10:03 PM 53.8°F12.1°C 30.6°F-0.8°C 41% 1.5 mph WSW2.4 kmh WSW 1.8 mph2.9 kmh 30.32 in1026.8 mb 0.00 in0.0 mm 0.00 in/hr0.0 mm/hr 0.00 in0.0 mm
10:08 PM 53.6°F12.0°C 30.4°F-0.9°C 41% 1.6 mph WSW2.6 kmh WSW 2.2 mph3.5 kmh 30.32 in1026.8 mb 0.00 in0.0 mm 0.00 in/hr0.0 mm/hr 0.00 in0.0 mm
10:13 PM 53.5°F11.9°C 30.2°F-1.0°C 41% 1.6 mph WSW2.6 kmh WSW 2.2 mph3.5 kmh 30.32 in1026.8 mb 0.00 in0.0 mm 0.00 in/hr0.0 mm/hr 0.00 in0.0 mm
10:18 PM 53.5°F11.9°C 30.9°F-0.6°C 42% 1.3 mph WSW2.1 kmh WSW 2.2 mph3.5 kmh 30.32 in1026.8 mb 0.00 in0.0 mm 0.00 in/hr0.0 mm/hr 0.00 in0.0 mm
10:23 PM 53.5°F11.9°C 30.9°F-0.6°C 42% 0.9 mph WSW1.4 kmh WSW 2.0 mph3.2 kmh 30.32 in1026.8 mb 0.00 in0.0 mm 0.00 in/hr0.0 mm/hr 0.00 in0.0 mm
10:28 PM 53.3°F11.8°C 30.7°F-0.7°C 42% 0.8 mph WSW1.3 kmh WSW 1.6 mph2.6 kmh 30.32 in1026.8 mb 0.00 in0.0 mm 0.00 in/hr0.0 mm/hr 0.00 in0.0 mm
10:33 PM 52.9°F11.6°C 31.5°F-0.3°C 44% 0.6 mph WSW1.0 kmh WSW 0.9 mph1.4 kmh 30.32 in1026.8 mb 0.00 in0.0 mm 0.00 in/hr0.0 mm/hr 0.00 in0.0 mm
10:38 PM 52.9°F11.6°C 30.9°F-0.6°C 43% 0.4 mph WSW0.6 kmh WSW 0.9 mph1.4 kmh 30.32 in1026.8 mb 0.00 in0.0 mm 0.00 in/hr0.0 mm/hr 0.00 in0.0 mm
10:43 PM 52.9°F11.6°C 31.5°F-0.3°C 44% 0.3 mph NNW0.5 kmh NNW 0.7 mph1.1 kmh 30.32 in1026.8 mb 0.00 in0.0 mm 0.00 in/hr0.0 mm/hr 0.00 in0.0 mm
10:48 PM 52.7°F11.5°C 31.3°F-0.4°C 44% 0.5 mph NNW0.8 kmh NNW 0.7 mph1.1 kmh 30.32 in1026.8 mb 0.00 in0.0 mm 0.00 in/hr0.0 mm/hr 0.00 in0.0 mm
10:53 PM 52.6°F11.4°C 31.1°F-0.5°C 44% Calm Calm 0.7 mph1.1 kmh 30.32 in1026.8 mb 0.00 in0.0 mm 0.00 in/hr0.0 mm/hr 0.00 in0.0 mm
10:58 PM 52.4°F11.3°C 30.4°F-0.9°C 43% Calm Calm -- 30.32 in1026.8 mb 0.00 in0.0 mm 0.00 in/hr0.0 mm/hr 0.00 in0.0 mm
11:03 PM 52.0°F11.1°C 30.1°F-1.1°C 43% Calm Calm -- 30.32 in1026.8 mb 0.00 in0.0 mm 0.00 in/hr0.0 mm/hr 0.00 in0.0 mm
11:07 PM 51.8°F11.0°C 30.0°F-1.1°C 43% 0.7 mph WSW1.1 kmh WSW 1.1 mph1.8 kmh 30.32 in1026.8 mb 0.00 in0.0 mm 0.00 in/hr0.0 mm/hr 0.00 in0.0 mm
11:12 PM 51.5°F10.8°C 30.2°F-1.0°C 44% 1.1 mph WSW1.8 kmh WSW 1.3 mph2.1 kmh 30.32 in1026.8 mb 0.00 in0.0 mm 0.00 in/hr0.0 mm/hr 0.00 in0.0 mm
11:17 PM 51.1°F10.6°C 29.9°F-1.2°C 44% 1.0 mph WSW1.6 kmh WSW 1.6 mph2.6 kmh 30.32 in1026.8 mb 0.00 in0.0 mm 0.00 in/hr0.0 mm/hr 0.00 in0.0 mm
11:22 PM 50.8°F10.4°C 30.1°F-1.1°C 45% 1.0 mph WSW1.6 kmh WSW 1.6 mph2.6 kmh 30.32 in1026.8 mb 0.00 in0.0 mm 0.00 in/hr0.0 mm/hr 0.00 in0.0 mm
11:29 PM 50.4°F10.2°C 29.8°F-1.2°C 45% Calm Calm 1.3 mph2.1 kmh 30.32 in1026.8 mb 0.00 in0.0 mm 0.00 in/hr0.0 mm/hr 0.00 in0.0 mm
11:34 PM 50.2°F10.1°C 30.2°F-1.0°C 46% Calm Calm 0.4 mph0.6 kmh 30.32 in1026.8 mb 0.00 in0.0 mm 0.00 in/hr0.0 mm/hr 0.00 in0.0 mm
11:39 PM 49.9°F9.9°C 29.8°F-1.2°C 46% 0.8 mph WSW1.3 kmh WSW 1.1 mph1.8 kmh 30.32 in1026.8 mb 0.00 in0.0 mm 0.00 in/hr0.0 mm/hr 0.00 in0.0 mm
11:44 PM 49.5°F9.7°C 30.1°F-1.1°C 47% 0.6 mph WSW1.0 kmh WSW 1.1 mph1.8 kmh 30.32 in1026.8 mb 0.00 in0.0 mm 0.00 in/hr0.0 mm/hr 0.00 in0.0 mm
11:49 PM 49.3°F9.6°C 30.4°F-0.9°C 48% 0.6 mph WSW1.0 kmh WSW 1.1 mph1.8 kmh 30.32 in1026.8 mb 0.00 in0.0 mm 0.00 in/hr0.0 mm/hr 0.00 in0.0 mm
11:54 PM 49.0°F9.4°C 30.1°F-1.1°C 48% Calm Calm 1.1 mph1.8 kmh 30.32 in1026.8 mb 0.00 in0.0 mm 0.00 in/hr0.0 mm/hr 0.00 in0.0 mm
11:59 PM 48.8°F9.3°C 30.4°F-0.9°C 49% Calm Calm 0.4 mph0.6 kmh 30.32 in1026.8 mb 0.00 in0.0 mm 0.00 in/hr0.0 mm/hr 0.00 in0.0 mm